Time;durP1;ratioP1;P1;durP2;ratioP2;P2;SDS_P1;SDS_P2;PMS_P1;PMS_P2;Temp;Humidity;BMP_temperature;BMP_pressure;BME280_temperature;BME280_humidity;BME280_pressure;Samples;Min_cycle;Max_cycle;Signal;HPM_P1;HPM_P2
2022/09/13 00:01:30;;;;;;;;;;;15.60;79.20;;;;;;5067674;28;19924;-64
2022/09/13 00:04:06;;;;;;;;;;;15.60;79.30;;;;;;5082914;28;21356;-64
2022/09/13 00:06:33;;;;;;;;;;;15.60;79.30;;;;;;5086446;28;19935;-64
2022/09/13 00:09:01;;;;;;;;;;;15.60;79.40;;;;;;5080941;28;20634;-65
2022/09/13 00:11:30;;;;;;;;;;;15.60;79.40;;;;;;5087970;28;19925;-64
2022/09/13 00:13:57;;;;;;;;;;;15.60;79.40;;;;;;5076655;28;19936;-65
2022/09/13 00:16:25;;;;;;;;;;;15.50;79.60;;;;;;5078896;28;19932;-65
2022/09/13 00:18:53;;;;;;;;;;;15.50;79.70;;;;;;5090281;28;19977;-63
2022/09/13 00:21:20;;;;;;;;;;;15.50;79.70;;;;;;5081509;28;20438;-65
2022/09/13 00:23:48;;;;;;;;;;;15.50;79.70;;;;;;5077332;28;19924;-65
2022/09/13 00:26:17;;;;;;;;;;;15.50;79.70;;;;;;5067163;28;19931;-65
2022/09/13 00:28:45;;;;;;;;;;;15.50;79.80;;;;;;5074921;28;19932;-64
2022/09/13 00:31:12;;;;;;;;;;;15.50;79.80;;;;;;5084175;28;20420;-64
2022/09/13 00:33:39;;;;;;;;;;;15.50;79.80;;;;;;5087540;28;20011;-66
2022/09/13 00:36:08;;;;;;;;;;;15.50;79.70;;;;;;5084740;28;19943;-64
2022/09/13 00:38:35;;;;;;;;;;;15.50;79.60;;;;;;5087671;28;19969;-66
2022/09/13 00:41:02;;;;;;;;;;;15.40;79.60;;;;;;5078257;28;19928;-64
2022/09/13 00:43:44;;;;;;;;;;;15.50;79.70;;;;;;5085506;28;19928;-65
2022/09/13 00:46:13;;;;;;;;;;;15.40;79.70;;;;;;5083802;28;19925;-65
2022/09/13 00:48:40;;;;;;;;;;;15.40;79.70;;;;;;5079695;28;19927;-64
2022/09/13 00:51:08;;;;;;;;;;;15.40;79.80;;;;;;5086598;28;19928;-63
2022/09/13 00:53:39;;;;;;;;;;;15.40;79.70;;;;;;5088978;28;20289;-65
2022/09/13 00:56:10;;;;;;;;;;;15.30;79.80;;;;;;5088987;28;19928;-64
2022/09/13 00:58:41;;;;;;;;;;;15.30;79.80;;;;;;5078981;28;19933;-64
2022/09/13 01:01:11;;;;;;;;;;;15.30;79.90;;;;;;5074259;28;19924;-64
2022/09/13 01:03:39;;;;;;;;;;;15.30;79.90;;;;;;5091542;28;19930;-64
2022/09/13 01:06:08;;;;;;;;;;;15.20;80.00;;;;;;5083249;28;19939;-64
2022/09/13 01:08:36;;;;;;;;;;;15.20;80.00;;;;;;5088521;28;19930;-64
2022/09/13 01:11:05;;;;;;;;;;;15.20;80.00;;;;;;5085397;28;19924;-64
2022/09/13 01:13:33;;;;;;;;;;;15.20;80.00;;;;;;5087986;28;19931;-63
2022/09/13 01:16:00;;;;;;;;;;;15.10;79.90;;;;;;5086223;28;20160;-65
2022/09/13 01:18:28;;;;;;;;;;;15.10;80.10;;;;;;5084413;28;19928;-65
2022/09/13 01:21:07;;;;;;;;;;;15.10;80.20;;;;;;5080205;28;19924;-65
2022/09/13 01:23:43;;;;;;;;;;;15.10;80.20;;;;;;5089038;28;19931;-64
2022/09/13 01:26:27;;;;;;;;;;;15.00;80.30;;;;;;5079403;28;19925;-64
2022/09/13 01:29:13;;;;;;;;;;;15.00;80.30;;;;;;5084217;28;20298;-64
2022/09/13 01:31:45;;;;;;;;;;;15.10;80.10;;;;;;5090180;28;20283;-64
2022/09/13 01:34:18;;;;;;;;;;;15.10;80.10;;;;;;5089383;28;19925;-64
2022/09/13 01:36:56;;;;;;;;;;;15.00;80.10;;;;;;5085829;28;20370;-64
2022/09/13 01:39:33;;;;;;;;;;;15.00;80.20;;;;;;5089294;28;19973;-64
2022/09/13 01:42:07;;;;;;;;;;;14.90;80.30;;;;;;5088176;28;19939;-65
2022/09/13 01:44:43;;;;;;;;;;;14.90;80.40;;;;;;5084622;28;20329;-63
2022/09/13 01:47:15;;;;;;;;;;;14.90;80.30;;;;;;5087767;28;19930;-64
2022/09/13 01:49:46;;;;;;;;;;;15.00;80.30;;;;;;5082011;28;19935;-63
2022/09/13 01:52:17;;;;;;;;;;;14.90;80.40;;;;;;5084580;28;19929;-64
2022/09/13 01:54:48;;;;;;;;;;;15.00;80.30;;;;;;5082159;28;19936;-63
2022/09/13 01:57:16;;;;;;;;;;;15.00;80.40;;;;;;5084826;28;19932;-64
2022/09/13 01:59:47;;;;;;;;;;;15.00;80.30;;;;;;5080120;28;19928;-65
2022/09/13 02:02:17;;;;;;;;;;;15.00;80.20;;;;;;5079756;28;19947;-64
2022/09/13 02:04:48;;;;;;;;;;;15.00;80.30;;;;;;5087200;28;20030;-64
2022/09/13 02:07:17;;;;;;;;;;;14.90;80.40;;;;;;5079672;28;19924;-64
2022/09/13 02:09:46;;;;;;;;;;;14.90;80.50;;;;;;5087306;28;19931;-66
2022/09/13 02:12:15;;;;;;;;;;;14.90;80.40;;;;;;5091187;28;19925;-65
2022/09/13 02:14:44;;;;;;;;;;;14.80;80.50;;;;;;5082934;28;20014;-64
2022/09/13 02:17:12;;;;;;;;;;;14.80;80.60;;;;;;5084919;28;20057;-65
2022/09/13 02:19:43;;;;;;;;;;;14.80;80.50;;;;;;5091933;28;19928;-64
2022/09/13 02:22:13;;;;;;;;;;;14.70;80.50;;;;;;5089623;28;20377;-64
2022/09/13 02:24:41;;;;;;;;;;;14.60;80.60;;;;;;5087681;28;19985;-64
2022/09/13 02:27:10;;;;;;;;;;;14.60;80.60;;;;;;5090611;28;19924;-66
2022/09/13 02:29:39;;;;;;;;;;;14.60;80.60;;;;;;5085929;28;19932;-65
2022/09/13 02:32:08;;;;;;;;;;;14.60;80.50;;;;;;5086486;28;19987;-64
2022/09/13 02:34:38;;;;;;;;;;;14.60;80.70;;;;;;5085475;28;19932;-64
2022/09/13 02:37:07;;;;;;;;;;;14.60;80.70;;;;;;5085972;28;19925;-65
2022/09/13 02:39:36;;;;;;;;;;;14.60;80.80;;;;;;5084568;28;19930;-64
2022/09/13 02:42:07;;;;;;;;;;;14.60;80.70;;;;;;5079635;28;19947;-65
2022/09/13 02:44:36;;;;;;;;;;;14.60;80.50;;;;;;5086560;28;19925;-64
2022/09/13 02:47:11;;;;;;;;;;;14.60;80.70;;;;;;5081615;28;19924;-64
2022/09/13 02:49:47;;;;;;;;;;;14.60;80.70;;;;;;5086694;28;19924;-64
2022/09/13 02:52:19;;;;;;;;;;;14.60;80.70;;;;;;5089519;28;19928;-64
2022/09/13 02:54:51;;;;;;;;;;;14.60;80.70;;;;;;5084760;28;19955;-65
2022/09/13 02:57:21;;;;;;;;;;;14.60;80.70;;;;;;5084389;28;19940;-64
2022/09/13 02:59:48;;;;;;;;;;;14.60;80.80;;;;;;5082633;28;19932;-67
2022/09/13 03:02:16;;;;;;;;;;;14.60;80.80;;;;;;5039257;28;19936;-65
2022/09/13 03:04:44;;;;;;;;;;;14.50;80.80;;;;;;5041798;28;20167;-65
2022/09/13 03:07:13;;;;;;;;;;;14.50;81.00;;;;;;5044598;28;21395;-65
2022/09/13 03:09:43;;;;;;;;;;;14.50;81.00;;;;;;5045552;28;20008;-64
2022/09/13 03:12:21;;;;;;;;;;;14.50;81.00;;;;;;5045264;28;20012;-64
2022/09/13 03:14:52;;;;;;;;;;;14.50;80.90;;;;;;5047171;28;19994;-64
2022/09/13 03:17:28;;;;;;;;;;;14.50;81.00;;;;;;5044532;28;19933;-64
2022/09/13 03:20:05;;;;;;;;;;;14.50;81.10;;;;;;5045061;28;20379;-64
2022/09/13 03:22:41;;;;;;;;;;;14.50;81.00;;;;;;5045875;28;20023;-65
2022/09/13 03:25:16;;;;;;;;;;;14.50;81.00;;;;;;5043782;28;19987;-64
2022/09/13 03:27:48;;;;;;;;;;;14.40;81.10;;;;;;5049594;28;19947;-66
2022/09/13 03:30:15;;;;;;;;;;;14.40;81.20;;;;;;5043195;28;19956;-65
2022/09/13 03:32:48;;;;;;;;;;;14.40;81.10;;;;;;5047662;28;19932;-64
2022/09/13 03:35:18;;;;;;;;;;;14.40;81.10;;;;;;5042489;28;19939;-64
2022/09/13 03:37:52;;;;;;;;;;;14.40;81.20;;;;;;5043385;28;19936;-66
2022/09/13 03:40:25;;;;;;;;;;;14.40;81.40;;;;;;5046542;28;20023;-64
2022/09/13 03:42:53;;;;;;;;;;;14.40;81.40;;;;;;5042468;28;20224;-64
2022/09/13 03:45:23;;;;;;;;;;;14.40;81.40;;;;;;5045849;28;19937;-63
2022/09/13 03:47:51;;;;;;;;;;;14.40;81.60;;;;;;5043070;28;19960;-64
2022/09/13 03:50:19;;;;;;;;;;;14.40;81.60;;;;;;5046000;28;19925;-65
2022/09/13 03:52:47;;;;;;;;;;;14.40;81.50;;;;;;5041042;28;19925;-65
2022/09/13 03:55:14;;;;;;;;;;;14.40;81.60;;;;;;5039195;28;19925;-64
2022/09/13 03:57:41;;;;;;;;;;;14.40;81.70;;;;;;5038433;28;19935;-64
2022/09/13 04:00:09;;;;;;;;;;;14.50;81.70;;;;;;5049049;28;19936;-63
2022/09/13 04:02:38;;;;;;;;;;;14.50;81.60;;;;;;5086768;28;19950;-64
2022/09/13 04:05:05;;;;;;;;;;;14.50;81.50;;;;;;5089630;28;20286;-64
2022/09/13 04:07:32;;;;;;;;;;;14.50;81.50;;;;;;5082814;28;19924;-64
2022/09/13 04:10:00;;;;;;;;;;;14.50;81.50;;;;;;5087627;28;19932;-64
2022/09/13 04:12:27;;;;;;;;;;;14.50;81.60;;;;;;5087621;28;19931;-65
2022/09/13 04:14:55;;;;;;;;;;;14.50;81.60;;;;;;5081652;28;20015;-63
2022/09/13 04:17:22;;;;;;;;;;;14.50;81.60;;;;;;5086861;28;19931;-64
2022/09/13 04:19:49;;;;;;;;;;;14.50;81.60;;;;;;5082161;28;19932;-64
2022/09/13 04:22:18;;;;;;;;;;;14.50;81.60;;;;;;5083088;28;19924;-64
2022/09/13 04:24:44;;;;;;;;;;;14.50;81.60;;;;;;5087850;28;20222;-64
2022/09/13 04:27:11;;;;;;;;;;;14.40;81.70;;;;;;5079652;28;19924;-64
2022/09/13 04:29:38;;;;;;;;;;;14.50;81.60;;;;;;5072152;28;20348;-63
2022/09/13 04:32:08;;;;;;;;;;;14.50;81.50;;;;;;5080890;28;20206;-65
2022/09/13 04:34:35;;;;;;;;;;;14.50;81.40;;;;;;5092001;28;19959;-65
2022/09/13 04:37:01;;;;;;;;;;;14.50;81.60;;;;;;5079956;28;19928;-65
2022/09/13 04:39:28;;;;;;;;;;;14.40;81.70;;;;;;5091809;28;20305;-65
2022/09/13 04:41:56;;;;;;;;;;;14.40;81.70;;;;;;5086545;28;19975;-63
2022/09/13 04:44:23;;;;;;;;;;;14.40;81.70;;;;;;5088874;28;20364;-64
2022/09/13 04:46:50;;;;;;;;;;;14.40;81.80;;;;;;5083421;28;19924;-65
2022/09/13 04:49:18;;;;;;;;;;;14.40;81.90;;;;;;5086932;28;19955;-65
2022/09/13 04:51:46;;;;;;;;;;;14.40;81.90;;;;;;5082091;28;19924;-65
2022/09/13 04:54:13;;;;;;;;;;;14.40;81.90;;;;;;5086504;28;19928;-64
2022/09/13 04:56:40;;;;;;;;;;;14.40;81.80;;;;;;5081221;28;20369;-65
2022/09/13 04:59:07;;;;;;;;;;;14.40;81.90;;;;;;5087690;28;20413;-63
2022/09/13 05:01:33;;;;;;;;;;;14.40;81.90;;;;;;5080761;28;20027;-65
2022/09/13 05:04:03;;;;;;;;;;;14.40;82.00;;;;;;5078947;28;19924;-64
2022/09/13 05:06:31;;;;;;;;;;;14.40;82.10;;;;;;5085647;28;19924;-63
2022/09/13 05:08:58;;;;;;;;;;;14.40;82.10;;;;;;5084975;28;20167;-64
2022/09/13 05:11:26;;;;;;;;;;;14.30;82.20;;;;;;5087369;28;20385;-64
2022/09/13 05:13:54;;;;;;;;;;;14.30;82.30;;;;;;5086653;28;19924;-65
2022/09/13 05:16:20;;;;;;;;;;;14.30;82.40;;;;;;5091292;28;20450;-64
2022/09/13 05:18:47;;;;;;;;;;;14.40;82.30;;;;;;5093025;28;19932;-65
2022/09/13 05:21:14;;;;;;;;;;;14.40;82.10;;;;;;5091796;28;19976;-65
2022/09/13 05:23:43;;;;;;;;;;;14.50;82.10;;;;;;5085317;28;19924;-64
2022/09/13 05:26:09;;;;;;;;;;;14.50;82.20;;;;;;5087599;28;19943;-65
2022/09/13 05:28:37;;;;;;;;;;;14.50;82.20;;;;;;5086200;28;19924;-65
2022/09/13 05:31:05;;;;;;;;;;;14.50;82.20;;;;;;5084666;28;19924;-64
2022/09/13 05:33:33;;;;;;;;;;;14.60;82.30;;;;;;5090845;28;20001;-64
2022/09/13 05:36:00;;;;;;;;;;;14.60;82.30;;;;;;5088770;28;19928;-64
2022/09/13 05:38:26;;;;;;;;;;;14.60;82.20;;;;;;5092562;28;19974;-65
2022/09/13 05:40:56;;;;;;;;;;;14.60;82.20;;;;;;5085986;28;19924;-65
2022/09/13 05:43:23;;;;;;;;;;;14.70;82.20;;;;;;5091832;28;19924;-65
2022/09/13 05:45:50;;;;;;;;;;;14.60;82.30;;;;;;5083818;28;19952;-65
2022/09/13 05:48:17;;;;;;;;;;;14.60;82.30;;;;;;5081983;28;20018;-64
2022/09/13 05:50:44;;;;;;;;;;;14.70;82.40;;;;;;5076993;28;20505;-63
2022/09/13 05:53:10;;;;;;;;;;;14.70;82.40;;;;;;5087037;28;19938;-64
2022/09/13 05:55:37;;;;;;;;;;;14.80;82.30;;;;;;5087883;28;19932;-63
2022/09/13 05:58:07;;;;;;;;;;;14.80;82.30;;;;;;5089207;28;20289;-64
2022/09/13 06:00:34;;;;;;;;;;;14.90;82.20;;;;;;5081663;28;19924;-64
2022/09/13 06:03:01;;;;;;;;;;;14.80;82.20;;;;;;5088879;28;19932;-64
2022/09/13 06:05:28;;;;;;;;;;;14.90;82.40;;;;;;5084577;28;20391;-64
2022/09/13 06:07:56;;;;;;;;;;;14.90;82.20;;;;;;5088947;28;19932;-64
2022/09/13 06:10:24;;;;;;;;;;;15.00;82.10;;;;;;5085267;28;19925;-65
2022/09/13 06:12:50;;;;;;;;;;;15.00;82.00;;;;;;5089920;28;20035;-65
2022/09/13 06:15:19;;;;;;;;;;;15.00;82.00;;;;;;5083128;28;20344;-65
2022/09/13 06:17:46;;;;;;;;;;;15.00;82.10;;;;;;5089540;28;19940;-64
2022/09/13 06:20:12;;;;;;;;;;;15.10;82.10;;;;;;5084189;28;19928;-64
2022/09/13 06:22:39;;;;;;;;;;;15.10;82.10;;;;;;5086253;28;19928;-63
2022/09/13 06:25:06;;;;;;;;;;;15.10;82.10;;;;;;5086369;28;20453;-65
2022/09/13 06:27:33;;;;;;;;;;;15.10;81.80;;;;;;5085852;28;19924;-64
2022/09/13 06:30:00;;;;;;;;;;;15.10;82.00;;;;;;5087610;28;20361;-64
2022/09/13 06:32:28;;;;;;;;;;;15.10;82.20;;;;;;5086079;28;20377;-64
2022/09/13 06:34:54;;;;;;;;;;;15.10;82.20;;;;;;5086987;28;20427;-63
2022/09/13 06:37:21;;;;;;;;;;;15.10;82.20;;;;;;5091263;28;20321;-64
2022/09/13 06:39:48;;;;;;;;;;;15.10;82.20;;;;;;5085285;28;19932;-64
2022/09/13 06:42:15;;;;;;;;;;;15.20;82.10;;;;;;5085633;28;20023;-65
2022/09/13 06:44:44;;;;;;;;;;;15.30;82.00;;;;;;5073766;28;20323;-65
2022/09/13 06:47:14;;;;;;;;;;;15.30;82.00;;;;;;5087449;28;19924;-64
2022/09/13 06:49:42;;;;;;;;;;;15.30;82.00;;;;;;5087813;28;20435;-64
2022/09/13 06:52:08;;;;;;;;;;;15.30;81.80;;;;;;5092430;28;19985;-64
2022/09/13 06:54:35;;;;;;;;;;;15.30;81.90;;;;;;5091963;28;19924;-64
2022/09/13 06:57:03;;;;;;;;;;;15.30;81.70;;;;;;5087976;28;19931;-64
2022/09/13 06:59:29;;;;;;;;;;;15.30;81.70;;;;;;5086054;28;20015;-65
2022/09/13 07:01:56;;;;;;;;;;;15.40;81.90;;;;;;5084341;28;19924;-64
2022/09/13 07:04:23;;;;;;;;;;;15.40;81.70;;;;;;5085401;28;19924;-65
2022/09/13 07:06:51;;;;;;;;;;;15.40;81.50;;;;;;5080063;28;19924;-65
2022/09/13 07:09:20;;;;;;;;;;;15.40;81.40;;;;;;5088223;28;20354;-65
2022/09/13 07:11:47;;;;;;;;;;;15.40;81.60;;;;;;5087323;28;19959;-63
2022/09/13 07:14:15;;;;;;;;;;;15.40;81.80;;;;;;5082572;28;20289;-64
2022/09/13 07:16:42;;;;;;;;;;;15.40;81.50;;;;;;5086606;28;19974;-65
2022/09/13 07:19:12;;;;;;;;;;;15.50;81.30;;;;;;5080676;28;19924;-65
2022/09/13 07:21:38;;;;;;;;;;;15.50;82.00;;;;;;5087137;28;20006;-64
2022/09/13 07:24:07;;;;;;;;;;;15.60;81.90;;;;;;5086675;28;19925;-65
2022/09/13 07:26:34;;;;;;;;;;;15.50;82.00;;;;;;5091537;28;19935;-65
2022/09/13 07:29:02;;;;;;;;;;;15.60;82.10;;;;;;5087636;28;19932;-64
2022/09/13 07:31:30;;;;;;;;;;;15.60;81.90;;;;;;5090439;28;19924;-64
2022/09/13 07:33:58;;;;;;;;;;;15.70;81.80;;;;;;5085303;28;20296;-63
2022/09/13 07:36:25;;;;;;;;;;;15.70;81.80;;;;;;5086614;28;19924;-64
2022/09/13 07:38:52;;;;;;;;;;;15.80;81.80;;;;;;5089883;28;19928;-64
2022/09/13 07:41:23;;;;;;;;;;;15.90;81.60;;;;;;5087335;28;19931;-65
2022/09/13 07:43:50;;;;;;;;;;;15.90;81.50;;;;;;5090615;28;19965;-65
2022/09/13 07:46:18;;;;;;;;;;;16.00;81.50;;;;;;5090153;28;19924;-63
2022/09/13 07:48:45;;;;;;;;;;;16.00;81.40;;;;;;5084795;28;19924;-65
2022/09/13 07:51:14;;;;;;;;;;;16.10;81.40;;;;;;5085798;28;19925;-63
2022/09/13 07:53:41;;;;;;;;;;;16.20;81.40;;;;;;5083196;28;20325;-65
2022/09/13 07:56:09;;;;;;;;;;;16.30;81.10;;;;;;5073832;28;19931;-65
2022/09/13 07:58:38;;;;;;;;;;;16.40;80.90;;;;;;5084783;28;19946;-65
2022/09/13 08:01:05;;;;;;;;;;;16.50;80.70;;;;;;5071440;28;19928;-64
2022/09/13 08:03:32;;;;;;;;;;;16.40;80.70;;;;;;5091820;28;19927;-65
2022/09/13 08:06:00;;;;;;;;;;;16.50;80.50;;;;;;5075657;28;19958;-65
2022/09/13 08:08:26;;;;;;;;;;;16.50;80.50;;;;;;5088742;28;19931;-64
2022/09/13 08:10:53;;;;;;;;;;;16.60;80.40;;;;;;5089840;28;19936;-65
2022/09/13 08:13:20;;;;;;;;;;;16.60;80.40;;;;;;5086046;28;19925;-64
2022/09/13 08:15:49;;;;;;;;;;;16.70;80.30;;;;;;5089472;28;19978;-66
2022/09/13 08:18:16;;;;;;;;;;;16.70;80.50;;;;;;5086386;28;19928;-65
2022/09/13 08:20:43;;;;;;;;;;;16.70;80.50;;;;;;5086336;28;20312;-65
2022/09/13 08:23:10;;;;;;;;;;;16.70;80.40;;;;;;5085720;28;19931;-66
2022/09/13 08:25:38;;;;;;;;;;;16.80;80.30;;;;;;5082951;28;19924;-65
2022/09/13 08:28:05;;;;;;;;;;;16.80;80.30;;;;;;5087536;28;19931;-65
2022/09/13 08:30:34;;;;;;;;;;;16.80;80.30;;;;;;5085332;28;20337;-65
2022/09/13 08:33:03;;;;;;;;;;;16.80;80.30;;;;;;5088583;28;20290;-67
2022/09/13 08:35:30;;;;;;;;;;;16.90;80.30;;;;;;5083754;28;19981;-65
2022/09/13 08:37:57;;;;;;;;;;;16.80;80.20;;;;;;5086696;28;19931;-65
2022/09/13 08:40:25;;;;;;;;;;;16.90;80.20;;;;;;5079906;28;20354;-65
2022/09/13 08:42:56;;;;;;;;;;;16.90;80.00;;;;;;5082596;28;20010;-66
2022/09/13 08:45:22;;;;;;;;;;;16.90;80.00;;;;;;5082735;28;19925;-63
2022/09/13 08:47:53;;;;;;;;;;;16.80;80.20;;;;;;5083805;28;20352;-66
2022/09/13 08:50:22;;;;;;;;;;;16.90;80.10;;;;;;5081705;28;19928;-65
2022/09/13 08:52:58;;;;;;;;;;;16.90;80.30;;;;;;5089078;28;20382;-64
2022/09/13 08:55:28;;;;;;;;;;;16.90;80.20;;;;;;5079170;28;19942;-65
2022/09/13 08:57:59;;;;;;;;;;;16.90;80.40;;;;;;5079261;28;19940;-65
2022/09/13 09:00:30;;;;;;;;;;;17.00;80.30;;;;;;5071302;28;19928;-66
2022/09/13 09:03:08;;;;;;;;;;;17.00;79.90;;;;;;5087266;28;19931;-64
2022/09/13 09:05:41;;;;;;;;;;;17.00;80.00;;;;;;5079965;28;19925;-64
2022/09/13 09:08:12;;;;;;;;;;;17.10;79.90;;;;;;5082482;28;19936;-64
2022/09/13 09:10:41;;;;;;;;;;;17.20;80.00;;;;;;5086265;28;20208;-64
2022/09/13 09:13:09;;;;;;;;;;;17.40;79.80;;;;;;5081872;28;19978;-65
2022/09/13 09:15:40;;;;;;;;;;;17.60;79.70;;;;;;5090568;28;19924;-65
2022/09/13 09:18:11;;;;;;;;;;;17.60;79.70;;;;;;5092568;28;19959;-65
2022/09/13 09:20:40;;;;;;;;;;;17.80;79.40;;;;;;5092576;28;19925;-65
2022/09/13 09:23:12;;;;;;;;;;;17.90;79.50;;;;;;5078818;28;19924;-65
2022/09/13 09:25:39;;;;;;;;;;;18.10;79.30;;;;;;5089447;28;20278;-64
2022/09/13 09:28:11;;;;;;;;;;;18.30;79.00;;;;;;5087582;28;20246;-64
2022/09/13 09:30:42;;;;;;;;;;;18.50;78.20;;;;;;5080165;28;19928;-65
2022/09/13 09:33:16;;;;;;;;;;;18.80;77.60;;;;;;5081962;28;19939;-64
2022/09/13 09:35:51;;;;;;;;;;;18.90;77.10;;;;;;5085822;28;20394;-65
2022/09/13 09:38:30;;;;;;;;;;;19.00;76.90;;;;;;5082823;28;20023;-65
2022/09/13 09:40:59;;;;;;;;;;;19.00;75.90;;;;;;5088542;28;20270;-64
2022/09/13 09:43:29;;;;;;;;;;;19.10;75.70;;;;;;5090331;28;19924;-65
2022/09/13 09:45:58;;;;;;;;;;;19.20;75.00;;;;;;5091521;28;19947;-64
2022/09/13 09:48:27;;;;;;;;;;;19.30;74.60;;;;;;5080745;28;19924;-64
2022/09/13 09:50:57;;;;;;;;;;;19.40;74.30;;;;;;5086160;28;19935;-65
2022/09/13 09:53:25;;;;;;;;;;;19.60;73.30;;;;;;5092992;28;20016;-64
2022/09/13 09:55:54;;;;;;;;;;;19.70;72.80;;;;;;5089307;28;19929;-64
2022/09/13 09:58:36;;;;;;;;;;;19.70;72.60;;;;;;5086528;28;19933;-65
2022/09/13 10:01:04;;;;;;;;;;;19.70;72.30;;;;;;5080387;28;19960;-64
2022/09/13 10:03:32;;;;;;;;;;;19.80;72.20;;;;;;5086986;28;19974;-65
2022/09/13 10:06:06;;;;;;;;;;;19.80;71.40;;;;;;5091001;28;19924;-65
2022/09/13 10:08:34;;;;;;;;;;;19.80;71.20;;;;;;5089327;28;19989;-64
2022/09/13 10:11:01;;;;;;;;;;;19.80;71.50;;;;;;5092321;28;19981;-65
2022/09/13 10:13:28;;;;;;;;;;;19.80;71.60;;;;;;5083588;28;19963;-65
2022/09/13 10:15:57;;;;;;;;;;;19.90;71.20;;;;;;5084506;28;19928;-65
2022/09/13 10:18:25;;;;;;;;;;;19.90;71.20;;;;;;5090018;28;19971;-66
2022/09/13 10:21:03;;;;;;;;;;;19.90;71.30;;;;;;5074571;28;19947;-65
2022/09/13 10:23:32;;;;;;;;;;;19.90;71.10;;;;;;5088720;28;19932;-64
2022/09/13 10:26:01;;;;;;;;;;;19.90;71.30;;;;;;5077562;28;19963;-65
2022/09/13 10:28:30;;;;;;;;;;;20.00;71.40;;;;;;5090276;28;19924;-65
2022/09/13 10:30:58;;;;;;;;;;;20.10;71.30;;;;;;5086776;28;19924;-65
2022/09/13 10:33:30;;;;;;;;;;;20.10;70.80;;;;;;5084937;28;19933;-65
2022/09/13 10:35:58;;;;;;;;;;;20.20;70.80;;;;;;5085173;28;20502;-64
2022/09/13 10:38:27;;;;;;;;;;;20.40;70.20;;;;;;5086938;28;19971;-66
2022/09/13 10:40:55;;;;;;;;;;;20.40;70.40;;;;;;5089073;28;19938;-66
2022/09/13 10:43:24;;;;;;;;;;;20.50;69.90;;;;;;5090372;28;19924;-66
2022/09/13 10:45:51;;;;;;;;;;;20.60;69.50;;;;;;5085696;28;19924;-66
2022/09/13 10:48:19;;;;;;;;;;;20.60;69.10;;;;;;5083802;28;19925;-65
2022/09/13 10:51:01;;;;;;;;;;;20.60;69.20;;;;;;5091777;28;19924;-65
2022/09/13 10:53:32;;;;;;;;;;;20.60;69.20;;;;;;5071895;28;19994;-65
2022/09/13 10:56:01;;;;;;;;;;;20.60;68.80;;;;;;5087014;28;19932;-65
2022/09/13 10:58:29;;;;;;;;;;;20.80;68.40;;;;;;5085318;28;19924;-65
2022/09/13 11:01:14;;;;;;;;;;;20.90;68.50;;;;;;5084777;28;19930;-65
2022/09/13 11:03:58;;;;;;;;;;;20.90;68.50;;;;;;5077819;28;20389;-65
2022/09/13 11:06:30;;;;;;;;;;;20.90;68.40;;;;;;5084408;28;19990;-65
2022/09/13 11:09:03;;;;;;;;;;;20.90;68.60;;;;;;5091395;28;20133;-65
2022/09/13 11:11:35;;;;;;;;;;;20.90;68.60;;;;;;5090451;28;19924;-65
2022/09/13 11:14:08;;;;;;;;;;;20.90;68.70;;;;;;5091660;28;19924;-65
2022/09/13 11:16:40;;;;;;;;;;;21.00;68.50;;;;;;5093206;28;19924;-65
2022/09/13 11:19:22;;;;;;;;;;;21.10;68.30;;;;;;5077015;28;19924;-64
2022/09/13 11:21:58;;;;;;;;;;;21.10;68.20;;;;;;5082835;28;19932;-65
2022/09/13 11:24:33;;;;;;;;;;;21.20;67.70;;;;;;5088077;28;19928;-65
2022/09/13 11:27:04;;;;;;;;;;;21.30;67.30;;;;;;5082997;28;20358;-66
2022/09/13 11:29:48;;;;;;;;;;;21.30;67.30;;;;;;5086246;28;19924;-66
2022/09/13 11:32:21;;;;;;;;;;;21.30;67.20;;;;;;5088018;28;20349;-65
2022/09/13 11:34:51;;;;;;;;;;;21.40;67.40;;;;;;5079047;28;19946;-66
2022/09/13 11:37:32;;;;;;;;;;;21.40;67.40;;;;;;5080755;28;20243;-66
2022/09/13 11:40:02;;;;;;;;;;;21.50;66.60;;;;;;5080058;28;19924;-66
2022/09/13 11:42:41;;;;;;;;;;;21.60;66.20;;;;;;5082624;28;20354;-67
2022/09/13 11:45:19;;;;;;;;;;;21.70;66.10;;;;;;5085036;28;19925;-65
2022/09/13 11:47:50;;;;;;;;;;;21.80;65.50;;;;;;5085155;28;19924;-65
2022/09/13 11:50:23;;;;;;;;;;;21.80;65.90;;;;;;5080270;28;19932;-66
2022/09/13 11:52:57;;;;;;;;;;;21.90;65.40;;;;;;5081531;28;19931;-64
2022/09/13 11:55:26;;;;;;;;;;;21.90;65.00;;;;;;5084220;28;19924;-66
2022/09/13 11:57:56;;;;;;;;;;;22.00;64.80;;;;;;5085121;28;19928;-65
2022/09/13 12:00:24;;;;;;;;;;;22.00;64.20;;;;;;5080771;28;20282;-64
2022/09/13 12:02:57;;;;;;;;;;;22.00;64.60;;;;;;5086765;28;19928;-65
2022/09/13 12:05:25;;;;;;;;;;;21.90;64.30;;;;;;5094911;28;20345;-65
2022/09/13 12:07:54;;;;;;;;;;;21.90;64.10;;;;;;5081767;28;19932;-65
2022/09/13 12:10:24;;;;;;;;;;;22.00;64.10;;;;;;5078071;28;20378;-66
2022/09/13 12:12:51;;;;;;;;;;;22.00;64.10;;;;;;5086016;28;19924;-65
2022/09/13 12:15:22;;;;;;;;;;;22.00;64.40;;;;;;5090009;28;20022;-65
2022/09/13 12:17:52;;;;;;;;;;;22.10;64.00;;;;;;5077019;28;20412;-65
2022/09/13 12:20:34;;;;;;;;;;;22.10;63.70;;;;;;5081672;28;19970;-65
2022/09/13 12:23:03;;;;;;;;;;;22.10;63.20;;;;;;5080261;28;19924;-65
2022/09/13 12:25:34;;;;;;;;;;;22.10;62.90;;;;;;5079239;28;21432;-64
2022/09/13 12:28:05;;;;;;;;;;;22.10;62.90;;;;;;5077886;28;19924;-65
2022/09/13 12:30:42;;;;;;;;;;;22.10;63.10;;;;;;5084052;28;19932;-66
2022/09/13 12:33:13;;;;;;;;;;;22.20;62.70;;;;;;5086105;28;19924;-65
2022/09/13 12:35:45;;;;;;;;;;;22.10;62.60;;;;;;5076784;28;20382;-63
2022/09/13 12:38:29;;;;;;;;;;;22.20;62.70;;;;;;5081091;28;19943;-66
2022/09/13 12:41:02;;;;;;;;;;;22.10;62.70;;;;;;5083663;28;20459;-64
2022/09/13 12:43:38;;;;;;;;;;;22.10;62.60;;;;;;5081192;28;19977;-65
2022/09/13 12:46:17;;;;;;;;;;;22.10;62.90;;;;;;5078514;28;19933;-66
2022/09/13 12:49:04;;;;;;;;;;;22.10;62.90;;;;;;5080900;28;19970;-66
2022/09/13 12:51:38;;;;;;;;;;;22.10;63.00;;;;;;5083003;28;19928;-65
2022/09/13 12:54:15;;;;;;;;;;;22.10;63.30;;;;;;5087349;28;20389;-65
2022/09/13 12:56:47;;;;;;;;;;;22.20;63.20;;;;;;5086349;28;19931;-64
2022/09/13 12:59:26;;;;;;;;;;;22.30;63.20;;;;;;5092358;28;20066;-67
2022/09/13 13:01:56;;;;;;;;;;;22.30;63.10;;;;;;5080817;28;19932;-65
2022/09/13 13:04:25;;;;;;;;;;;22.40;63.10;;;;;;5085572;28;19947;-65
2022/09/13 13:06:53;;;;;;;;;;;22.50;62.90;;;;;;5079637;28;19935;-66
2022/09/13 13:09:22;;;;;;;;;;;22.60;62.50;;;;;;5074533;28;20673;-65
2022/09/13 13:11:50;;;;;;;;;;;22.60;62.50;;;;;;5078395;28;19935;-66
2022/09/13 13:14:38;;;;;;;;;;;22.60;62.60;;;;;;5087247;28;20586;-66
2022/09/13 13:17:23;;;;;;;;;;;22.70;62.30;;;;;;5078922;28;19924;-67
2022/09/13 13:19:51;;;;;;;;;;;22.70;62.50;;;;;;5081301;28;19931;-65
2022/09/13 13:22:37;;;;;;;;;;;22.70;62.40;;;;;;5085179;28;19932;-67
2022/09/13 13:25:18;;;;;;;;;;;22.70;62.40;;;;;;5073034;28;19982;-65
2022/09/13 13:27:48;;;;;;;;;;;22.70;62.60;;;;;;5077255;28;19935;-66
2022/09/13 13:30:33;;;;;;;;;;;22.70;62.50;;;;;;5091339;28;20293;-65
2022/09/13 13:33:05;;;;;;;;;;;22.70;62.20;;;;;;5077309;28;19935;-65
2022/09/13 13:35:33;;;;;;;;;;;22.70;62.10;;;;;;5082928;28;19987;-69
2022/09/13 13:38:14;;;;;;;;;;;22.70;61.80;;;;;;5062759;28;19939;-65
2022/09/13 13:40:40;;;;;;;;;;;22.60;61.70;;;;;;5086797;28;19924;-66
2022/09/13 13:43:29;;;;;;;;;;;22.60;61.80;;;;;;5080945;28;20027;-65
2022/09/13 13:45:57;;;;;;;;;;;22.60;61.60;;;;;;5083609;28;19946;-67
2022/09/13 13:48:34;;;;;;;;;;;22.50;61.50;;;;;;5083060;28;19928;-65
2022/09/13 13:51:18;;;;;;;;;;;22.50;61.20;;;;;;5089926;28;19970;-65
2022/09/13 13:53:48;;;;;;;;;;;22.60;61.10;;;;;;5081801;28;19970;-66
2022/09/13 13:56:28;;;;;;;;;;;22.60;60.80;;;;;;5078483;28;19931;-66
2022/09/13 13:58:56;;;;;;;;;;;22.60;60.70;;;;;;5083687;28;19928;-66
2022/09/13 14:01:26;;;;;;;;;;;22.70;60.40;;;;;;5078666;28;19928;-65
2022/09/13 14:04:09;;;;;;;;;;;22.60;60.50;;;;;;5088706;28;19924;-66
2022/09/13 14:06:43;;;;;;;;;;;22.70;60.50;;;;;;5080339;28;19932;-65
2022/09/13 14:09:20;;;;;;;;;;;22.70;60.40;;;;;;5091825;28;19924;-67
2022/09/13 14:11:56;;;;;;;;;;;22.80;60.10;;;;;;5085725;28;20023;-66
2022/09/13 14:14:32;;;;;;;;;;;22.80;60.30;;;;;;5083446;28;19946;-65
2022/09/13 14:17:15;;;;;;;;;;;22.90;60.00;;;;;;5092401;28;19930;-65
2022/09/13 14:19:46;;;;;;;;;;;22.90;59.70;;;;;;5088075;28;20280;-65
2022/09/13 14:22:18;;;;;;;;;;;23.00;60.00;;;;;;5087899;28;19924;-64
2022/09/13 14:24:47;;;;;;;;;;;23.00;59.50;;;;;;5084621;28;19928;-66
2022/09/13 14:27:18;;;;;;;;;;;23.10;59.10;;;;;;5092203;28;19928;-66
2022/09/13 14:29:48;;;;;;;;;;;23.10;59.50;;;;;;5084783;28;19931;-66
2022/09/13 14:32:16;;;;;;;;;;;23.00;59.50;;;;;;5085778;28;19924;-65
2022/09/13 14:34:50;;;;;;;;;;;23.00;59.60;;;;;;5086915;28;19924;-66